< < Back
Terminal Aerodrome Forecast


Current Version              Previous Versions:   1  2  3  4  5  6  7  8  9  

Terminal Aerodrome Forecast

369
FTUS42 KFFC 290933 AAA
TAFPDK
TAF AMD
KPDK 290933Z 2910/3006 00000KT P6SM SCT150
     FM291500 32005KT P6SM SCT050 SCT250
     FM300000 00000KT P6SM SCT250=

Latest METAR

150
SAUS70 KWBC 300600 RRB
MTRPDK
METAR KPDK 300553Z AUTO 18005KT 10SM CLR 25/19 A2996 RMK AO2 SLP124
T02500194 10328 20250 58003


USA.gov is the U.S. government's official web portal to all federal, state and local government web resources and services.